createdAt,value
2022-11-26T00:02:27.677Z,30.52
2022-11-26T00:04:56.585Z,32.95
2022-11-26T00:07:27.078Z,27.45
2022-11-26T00:09:55.987Z,29.83
2022-11-26T00:12:33.922Z,32.08
2022-11-26T00:15:15.762Z,32.85
2022-11-26T00:17:43.348Z,30.85
2022-11-26T00:20:11.500Z,29.58
2022-11-26T00:22:48.798Z,29.38
2022-11-26T00:25:19.041Z,29.52
2022-11-26T00:27:47.181Z,33.72
2022-11-26T00:30:25.859Z,28.90
2022-11-26T00:32:55.033Z,35.17
2022-11-26T00:35:23.309Z,32.95
2022-11-26T00:37:58.518Z,29.05
2022-11-26T00:40:33.008Z,27.85
2022-11-26T00:43:01.845Z,25.23
2022-11-26T00:45:31.428Z,30.70
2022-11-26T00:48:01.797Z,26.83
2022-11-26T00:50:40.495Z,24.17
2022-11-26T00:53:12.892Z,26.75
2022-11-26T00:55:41.966Z,25.58
2022-11-26T00:58:30.093Z,24.77
2022-11-26T01:00:59.381Z,22.38
2022-11-26T01:03:26.758Z,25.75
2022-11-26T01:05:56.960Z,26.50
2022-11-26T01:08:34.141Z,22.45
2022-11-26T01:11:04.398Z,26.67
2022-11-26T01:13:32.628Z,25.55
2022-11-26T01:16:01.659Z,24.38
2022-11-26T01:18:34.529Z,22.20
2022-11-26T01:21:04.039Z,24.95
2022-11-26T01:23:33.287Z,25.13
2022-11-26T01:26:06.423Z,20.70
2022-11-26T01:28:34.351Z,17.75
2022-11-26T01:31:01.567Z,20.95
2022-11-26T01:33:28.876Z,19.75
2022-11-26T01:35:57.009Z,19.33
2022-11-26T01:38:24.416Z,21.10
2022-11-26T01:41:20.848Z,22.35
2022-11-26T01:43:50.677Z,20.42
2022-11-26T01:46:21.106Z,18.45
2022-11-26T01:48:50.689Z,17.63
2022-11-26T01:51:28.268Z,18.23
2022-11-26T01:54:00.114Z,18.60
2022-11-26T01:56:47.817Z,20.20
2022-11-26T01:59:28.196Z,18.65
2022-11-26T02:01:58.548Z,17.90
2022-11-26T02:04:35.837Z,19.30
2022-11-26T02:07:04.037Z,15.75
2022-11-26T02:09:31.814Z,15.90
2022-11-26T02:11:59.158Z,18.98
2022-11-26T02:14:31.089Z,17.25
2022-11-26T02:17:14.997Z,16.67
2022-11-26T02:20:12.697Z,15.27
2022-11-26T02:22:55.007Z,18.55
2022-11-26T02:25:31.481Z,18.10
2022-11-26T02:28:17.939Z,19.92
2022-11-26T02:30:53.706Z,16.83
2022-11-26T02:33:24.876Z,17.92
2022-11-26T02:35:57.423Z,16.40
2022-11-26T02:38:26.310Z,15.85
2022-11-26T02:40:53.738Z,17.35
2022-11-26T02:43:21.529Z,13.43
2022-11-26T02:45:58.979Z,16.52
2022-11-26T02:48:29.142Z,14.55
2022-11-26T02:51:09.552Z,14.27
2022-11-26T02:53:38.570Z,14.43
2022-11-26T02:56:13.557Z,14.60
2022-11-26T02:58:40.998Z,15.13
2022-11-26T03:01:15.694Z,12.57
2022-11-26T03:03:46.555Z,13.18
2022-11-26T03:06:15.452Z,10.57
2022-11-26T03:08:46.381Z,12.40
2022-11-26T03:11:13.975Z,14.43
2022-11-26T03:13:41.321Z,12.65
2022-11-26T03:16:11.293Z,13.18
2022-11-26T03:18:38.482Z,14.05
2022-11-26T03:21:05.890Z,14.02
2022-11-26T03:23:33.671Z,12.30
2022-11-26T03:26:01.360Z,14.05
2022-11-26T03:28:28.724Z,11.65
2022-11-26T03:30:56.108Z,11.13
2022-11-26T03:33:23.466Z,11.13
2022-11-26T03:35:51.208Z,12.60
2022-11-26T03:38:18.418Z,11.68
2022-11-26T03:40:45.788Z,11.80
2022-11-26T03:43:13.095Z,12.93
2022-11-26T03:45:40.469Z,9.80
2022-11-26T03:48:08.227Z,11.40
2022-11-26T03:50:38.288Z,11.60
2022-11-26T03:53:05.650Z,12.73
2022-11-26T03:55:32.948Z,13.20
2022-11-26T03:58:01.672Z,10.85
2022-11-26T04:00:28.959Z,10.93
2022-11-26T04:02:56.763Z,9.90
2022-11-26T04:05:24.111Z,9.63
2022-11-26T04:07:51.497Z,9.98
2022-11-26T04:10:18.994Z,11.20
2022-11-26T04:12:46.383Z,11.02
2022-11-26T04:15:13.756Z,9.95
2022-11-26T04:17:41.569Z,9.25
2022-11-26T04:20:09.231Z,10.75
2022-11-26T04:22:39.090Z,9.63
2022-11-26T04:25:06.967Z,9.30
2022-11-26T04:27:34.251Z,9.27
2022-11-26T04:30:01.662Z,8.60
2022-11-26T04:32:29.019Z,7.65
2022-11-26T04:34:56.377Z,7.22
2022-11-26T04:37:23.718Z,8.18
2022-11-26T04:39:51.128Z,7.37
2022-11-26T04:42:18.496Z,10.32
2022-11-26T04:44:45.848Z,9.88
2022-11-26T04:47:13.219Z,10.05
2022-11-26T04:49:40.672Z,7.38
2022-11-26T04:52:08.643Z,9.55
2022-11-26T04:54:38.699Z,9.98
2022-11-26T04:57:06.650Z,7.85
2022-11-26T04:59:33.946Z,8.23
2022-11-26T05:02:01.623Z,8.52
2022-11-26T05:04:29.953Z,7.28
2022-11-26T05:06:57.685Z,7.80
2022-11-26T05:09:24.927Z,8.15
2022-11-26T05:11:54.712Z,6.93
2022-11-26T05:14:21.859Z,7.53
2022-11-26T05:16:49.202Z,7.53
2022-11-26T05:19:16.619Z,7.60
2022-11-26T05:21:43.951Z,7.03
2022-11-26T05:24:11.308Z,8.83
2022-11-26T05:26:38.662Z,6.80
2022-11-26T05:29:05.999Z,6.93
2022-11-26T05:31:33.337Z,6.43
2022-11-26T05:34:01.049Z,6.07
2022-11-26T05:36:28.348Z,6.70
2022-11-26T05:38:56.026Z,7.53
2022-11-26T05:41:23.354Z,6.57
2022-11-26T05:43:50.672Z,5.93
2022-11-26T05:46:19.320Z,8.38
2022-11-26T05:48:49.339Z,11.32
2022-11-26T05:51:19.399Z,6.70
2022-11-26T05:53:47.098Z,7.78
2022-11-26T05:56:14.326Z,7.22
2022-11-26T05:58:47.304Z,5.65
2022-11-26T06:01:14.818Z,6.55
2022-11-26T06:03:42.678Z,5.82
2022-11-26T06:06:10.162Z,5.22
2022-11-26T06:08:37.541Z,6.27
2022-11-26T06:11:05.084Z,6.03
2022-11-26T06:13:32.461Z,6.90
2022-11-26T06:16:00.228Z,6.63
2022-11-26T06:18:27.486Z,6.43
2022-11-26T06:20:54.846Z,6.57
2022-11-26T06:23:22.399Z,7.07
2022-11-26T06:25:49.692Z,5.55
2022-11-26T06:28:18.963Z,7.40
2022-11-26T06:30:46.537Z,7.30
2022-11-26T06:33:13.919Z,8.00
2022-11-26T06:35:41.204Z,6.95
2022-11-26T06:38:10.247Z,5.35
2022-11-26T06:40:40.374Z,6.43
2022-11-26T06:43:09.657Z,6.53
2022-11-26T06:45:37.471Z,5.32
2022-11-26T06:48:04.934Z,5.90
2022-11-26T06:50:32.265Z,6.60
2022-11-26T06:52:59.529Z,7.32
2022-11-26T06:55:26.871Z,7.85
2022-11-26T06:57:54.237Z,4.25
2022-11-26T07:00:23.163Z,7.10
2022-11-26T07:02:52.916Z,6.28
2022-11-26T07:05:20.541Z,4.55
2022-11-26T07:07:49.466Z,6.53
2022-11-26T07:10:16.835Z,7.38
2022-11-26T07:12:44.170Z,6.05
2022-11-26T07:15:12.311Z,8.32
2022-11-26T07:17:39.644Z,8.20
2022-11-26T07:20:07.625Z,5.72
2022-11-26T07:22:35.647Z,7.18
2022-11-26T07:25:03.101Z,7.70
2022-11-26T07:27:30.526Z,7.72
2022-11-26T07:29:57.862Z,7.28
2022-11-26T07:32:25.326Z,8.48
2022-11-26T07:34:52.713Z,6.97
2022-11-26T07:37:20.191Z,7.60
2022-11-26T07:39:48.006Z,6.88
2022-11-26T07:42:15.390Z,9.23
2022-11-26T07:44:42.838Z,9.98
2022-11-26T07:47:10.236Z,10.07
2022-11-26T07:49:37.582Z,8.93
2022-11-26T07:52:05.093Z,8.48
2022-11-26T07:54:32.491Z,8.40
2022-11-26T07:56:59.815Z,9.90
2022-11-26T07:59:27.173Z,7.55
2022-11-26T08:01:54.542Z,10.13
2022-11-26T08:04:21.857Z,8.10
2022-11-26T08:06:49.247Z,8.90
2022-11-26T08:09:16.634Z,8.43
2022-11-26T08:11:43.987Z,7.23
2022-11-26T08:14:13.123Z,9.82
2022-11-26T08:16:41.186Z,6.75
2022-11-26T08:19:12.668Z,7.32
2022-11-26T08:21:40.791Z,9.00
2022-11-26T08:24:12.687Z,8.75
2022-11-26T08:26:44.142Z,6.28
2022-11-26T08:29:13.615Z,6.87
2022-11-26T08:31:45.596Z,7.20
2022-11-26T08:34:15.880Z,5.72
2022-11-26T08:36:46.157Z,7.43
2022-11-26T08:39:18.430Z,9.43
2022-11-26T08:41:51.585Z,10.05
2022-11-26T08:44:20.438Z,8.93
2022-11-26T08:46:48.532Z,8.93
2022-11-26T08:49:16.992Z,7.68
2022-11-26T08:51:44.600Z,9.70
2022-11-26T08:54:12.386Z,11.83
2022-11-26T08:56:40.137Z,14.48
2022-11-26T08:59:07.527Z,9.60
2022-11-26T09:01:35.025Z,10.48
2022-11-26T09:04:03.997Z,14.63
2022-11-26T09:06:33.295Z,11.45
2022-11-26T09:09:13.327Z,13.40
2022-11-26T09:11:56.177Z,13.20
2022-11-26T09:14:27.265Z,13.05
2022-11-26T09:16:56.560Z,14.50
2022-11-26T09:19:24.780Z,18.27
2022-11-26T09:21:52.332Z,17.30
2022-11-26T09:24:20.190Z,15.23
2022-11-26T09:26:50.828Z,16.83
2022-11-26T09:29:22.905Z,21.67
2022-11-26T09:34:38.904Z,15.17
2022-11-26T09:37:06.881Z,15.80
2022-11-26T09:39:34.231Z,16.90
2022-11-26T09:42:14.836Z,17.17
2022-11-26T09:45:09.295Z,13.98
2022-11-26T09:47:42.550Z,15.43
2022-11-26T09:50:15.958Z,16.63
2022-11-26T09:53:01.930Z,16.73
2022-11-26T09:55:42.765Z,16.33
2022-11-26T09:58:33.347Z,15.18
2022-11-26T10:01:06.546Z,10.85
2022-11-26T10:03:36.510Z,14.07
2022-11-26T10:06:07.007Z,12.07
2022-11-26T10:08:52.831Z,12.85
2022-11-26T10:11:23.057Z,10.95
2022-11-26T10:14:35.357Z,9.60
2022-11-26T10:17:21.233Z,9.03
2022-11-26T10:20:00.891Z,14.10
2022-11-26T10:22:43.308Z,16.60
2022-11-26T10:25:17.804Z,17.50
2022-11-26T10:27:45.992Z,19.48
2022-11-26T10:30:21.748Z,18.57
2022-11-26T10:32:51.216Z,17.98
2022-11-26T10:35:21.783Z,16.42
2022-11-26T10:37:49.635Z,13.82
2022-11-26T10:40:24.277Z,16.17
2022-11-26T10:43:17.323Z,15.95
2022-11-26T10:45:49.755Z,13.18
2022-11-26T10:48:21.133Z,20.27
2022-11-26T10:51:02.203Z,26.13
2022-11-26T10:53:46.226Z,34.53
2022-11-26T10:56:19.655Z,15.95
2022-11-26T10:58:48.872Z,19.00
2022-11-26T11:01:16.860Z,17.63
2022-11-26T11:04:09.336Z,15.70
2022-11-26T11:06:45.005Z,14.85
2022-11-26T11:09:28.960Z,16.17
2022-11-26T11:12:11.644Z,14.02
2022-11-26T11:14:42.971Z,9.43
2022-11-26T11:17:32.120Z,10.25
2022-11-26T11:20:03.503Z,7.30
2022-11-26T11:22:31.151Z,8.60
2022-11-26T11:25:00.203Z,9.82
2022-11-26T11:27:41.377Z,9.57
2022-11-26T11:30:25.474Z,6.50
2022-11-26T11:32:57.289Z,5.07
2022-11-26T11:35:27.623Z,3.45
2022-11-26T11:37:56.879Z,3.95
2022-11-26T11:40:28.898Z,5.33
2022-11-26T11:43:00.590Z,6.10
2022-11-26T11:45:53.170Z,6.30
2022-11-26T11:48:30.266Z,4.27
2022-11-26T11:51:08.954Z,3.83
2022-11-26T11:53:50.328Z,4.85
2022-11-26T11:56:35.429Z,2.53
2022-11-26T11:59:12.960Z,2.30
2022-11-26T12:02:02.313Z,3.00
2022-11-26T12:05:04.960Z,3.90
2022-11-26T12:07:37.894Z,3.30
2022-11-26T12:10:08.287Z,1.58
2022-11-26T12:12:45.174Z,2.17
2022-11-26T12:15:23.833Z,1.75
2022-11-26T12:17:58.608Z,3.33
2022-11-26T12:20:33.842Z,3.30
2022-11-26T12:23:28.085Z,2.97
2022-11-26T12:26:18.352Z,3.25
2022-11-26T12:28:55.900Z,2.33
2022-11-26T12:31:33.617Z,2.25
2022-11-26T12:34:43.931Z,3.55
2022-11-26T12:37:21.427Z,2.97
2022-11-26T12:42:47.157Z,4.20
2022-11-26T12:45:38.917Z,3.35
2022-11-26T12:48:33.749Z,2.95
2022-11-26T12:51:13.826Z,2.75
2022-11-26T12:53:57.080Z,3.77
2022-11-26T12:56:37.398Z,2.08
2022-11-26T12:59:24.784Z,4.18
2022-11-26T13:01:52.284Z,8.43
2022-11-26T13:04:37.307Z,6.55
2022-11-26T13:07:18.253Z,2.67
2022-11-26T13:09:51.494Z,6.47
2022-11-26T13:12:35.208Z,4.13
2022-11-26T13:15:20.932Z,3.45
2022-11-26T13:17:49.992Z,5.10
2022-11-26T13:20:38.423Z,3.23
2022-11-26T13:23:30.298Z,5.68
2022-11-26T13:26:24.960Z,2.88
2022-11-26T13:29:17.201Z,4.32
2022-11-26T13:31:54.491Z,4.90
2022-11-26T13:34:58.034Z,4.75
2022-11-26T13:37:37.117Z,4.35
2022-11-26T13:40:19.357Z,4.38
2022-11-26T13:42:56.837Z,4.50
2022-11-26T13:45:51.683Z,6.60
2022-11-26T13:48:48.973Z,6.85
2022-11-26T13:51:31.507Z,6.35
2022-11-26T13:54:11.108Z,8.10
2022-11-26T13:56:40.132Z,6.00
2022-11-26T13:59:26.856Z,6.45
2022-11-26T14:01:55.964Z,3.25
2022-11-26T14:04:23.318Z,2.97
2022-11-26T14:07:18.873Z,2.38
2022-11-26T14:09:49.308Z,3.00
2022-11-26T14:12:17.899Z,2.70
2022-11-26T14:14:52.354Z,2.80
2022-11-26T14:17:24.970Z,2.45
2022-11-26T14:19:52.231Z,4.53
2022-11-26T14:22:22.396Z,2.55
2022-11-26T14:24:50.048Z,4.82
2022-11-26T14:27:30.820Z,3.53
2022-11-26T14:30:02.885Z,3.25
2022-11-26T14:32:53.037Z,3.17
2022-11-26T14:35:34.084Z,2.50
2022-11-26T14:38:05.488Z,4.00
2022-11-26T14:40:35.491Z,2.25
2022-11-26T14:43:16.494Z,5.05
2022-11-26T14:45:49.526Z,2.55
2022-11-26T14:48:27.259Z,3.20
2022-11-26T14:50:57.068Z,3.37
2022-11-26T14:53:27.934Z,3.42
2022-11-26T14:55:56.108Z,2.42
2022-11-26T14:58:47.031Z,5.13
2022-11-26T15:01:23.333Z,5.37
2022-11-26T15:04:02.617Z,5.25
2022-11-26T15:06:42.995Z,5.18
2022-11-26T15:09:20.144Z,2.70
2022-11-26T15:12:03.912Z,17.10
2022-11-26T15:14:54.906Z,5.85
2022-11-26T15:17:25.654Z,8.47
2022-11-26T15:19:55.173Z,5.82
2022-11-26T15:22:24.828Z,3.83
2022-11-26T15:24:53.458Z,5.88
2022-11-26T15:27:47.976Z,11.48
2022-11-26T15:30:21.599Z,7.45
2022-11-26T15:32:55.781Z,7.38
2022-11-26T15:35:23.260Z,9.50
2022-11-26T15:37:50.688Z,9.68
2022-11-26T15:40:21.604Z,11.55
2022-11-26T15:42:51.827Z,15.40
2022-11-26T15:45:22.600Z,13.60
2022-11-26T15:47:52.616Z,15.25
2022-11-26T15:50:25.697Z,13.93
2022-11-26T15:52:58.029Z,11.90
2022-11-26T15:55:29.799Z,13.40
2022-11-26T15:57:57.791Z,9.85
2022-11-26T16:00:35.726Z,12.57
2022-11-26T16:03:05.051Z,9.63
2022-11-26T16:05:38.802Z,16.95
2022-11-26T16:08:25.150Z,20.95
2022-11-26T16:10:57.905Z,18.08
2022-11-26T16:13:30.150Z,19.67
2022-11-26T16:16:12.808Z,17.90
2022-11-26T16:18:44.292Z,23.27
2022-11-26T16:21:26.029Z,14.90
2022-11-26T16:23:59.302Z,11.95
2022-11-26T16:26:27.851Z,13.43
2022-11-26T16:28:55.479Z,11.65
2022-11-26T16:31:23.171Z,8.20
2022-11-26T16:33:50.673Z,10.77
2022-11-26T16:36:21.079Z,10.52
2022-11-26T16:38:49.275Z,8.43
2022-11-26T16:41:18.514Z,9.52
2022-11-26T16:43:46.033Z,9.75
2022-11-26T16:46:23.782Z,11.50
2022-11-26T16:48:51.652Z,11.35
2022-11-26T16:51:19.190Z,12.27
2022-11-26T16:53:46.583Z,11.63
2022-11-26T16:56:38.267Z,12.63
2022-11-26T16:59:27.171Z,12.98
2022-11-26T17:01:54.723Z,9.63
2022-11-26T17:04:22.685Z,9.93
2022-11-26T17:06:50.227Z,10.82
2022-11-26T17:09:19.304Z,9.73
2022-11-26T17:11:46.834Z,11.57
2022-11-26T17:14:14.240Z,10.45
2022-11-26T17:16:41.818Z,12.23
2022-11-26T17:19:13.248Z,14.47
2022-11-26T17:21:40.669Z,10.40
2022-11-26T17:24:08.196Z,11.68
2022-11-26T17:26:35.737Z,11.83
2022-11-26T17:29:03.129Z,12.07
2022-11-26T17:31:30.556Z,10.70
2022-11-26T17:33:57.983Z,12.88
2022-11-26T17:36:25.392Z,10.43
2022-11-26T17:38:52.794Z,12.63
2022-11-26T17:41:20.273Z,14.05
2022-11-26T17:43:47.636Z,11.43
2022-11-26T17:46:21.135Z,9.77
2022-11-26T17:48:49.495Z,13.13
2022-11-26T17:51:17.168Z,12.05
2022-11-26T17:53:45.067Z,15.35
2022-11-26T17:56:20.876Z,14.95
2022-11-26T17:58:48.695Z,18.55
2022-11-26T18:01:17.102Z,22.17
2022-11-26T18:03:45.528Z,18.97
2022-11-26T18:06:17.758Z,19.13
2022-11-26T18:08:45.769Z,23.48
2022-11-26T18:11:14.725Z,22.40
2022-11-26T18:13:42.557Z,21.67
2022-11-26T18:16:09.848Z,23.05
2022-11-26T18:18:37.219Z,20.70
2022-11-26T18:21:05.291Z,19.70
2022-11-26T18:23:32.738Z,19.80
2022-11-26T18:26:00.610Z,20.42
2022-11-26T18:28:28.694Z,21.25
2022-11-26T18:30:59.754Z,22.33
2022-11-26T18:33:27.206Z,25.97
2022-11-26T18:35:54.559Z,25.60
2022-11-26T18:38:21.965Z,29.50
2022-11-26T18:41:03.560Z,29.30
2022-11-26T18:43:35.568Z,30.73
2022-11-26T18:46:10.971Z,31.02
2022-11-26T18:48:39.589Z,30.90
2022-11-26T18:51:07.148Z,28.63
2022-11-26T18:53:35.085Z,29.42
2022-11-26T18:56:16.502Z,30.52
2022-11-26T18:58:44.693Z,28.35
2022-11-26T19:01:17.462Z,26.83
2022-11-26T19:03:45.375Z,27.27
2022-11-26T19:06:16.304Z,24.70
2022-11-26T19:08:44.458Z,28.15
2022-11-26T19:11:14.223Z,26.38
2022-11-26T19:13:42.165Z,29.27
2022-11-26T19:16:16.494Z,29.77
2022-11-26T19:18:45.400Z,36.30
2022-11-26T19:21:19.991Z,37.57
2022-11-26T19:23:47.943Z,32.35
2022-11-26T19:26:15.793Z,34.90
2022-11-26T19:28:43.145Z,35.50
2022-11-26T19:31:12.312Z,31.13
2022-11-26T19:33:40.475Z,33.17
2022-11-26T19:36:11.166Z,27.08
2022-11-26T19:38:39.055Z,28.30
2022-11-26T19:41:07.022Z,28.30
2022-11-26T19:43:38.184Z,27.55
2022-11-26T19:46:09.511Z,28.77
2022-11-26T19:48:38.609Z,29.90
2022-11-26T19:51:06.995Z,30.80
2022-11-26T19:53:35.332Z,26.67
2022-11-26T19:56:04.301Z,32.15
2022-11-26T19:58:33.909Z,27.27
2022-11-26T20:01:01.852Z,30.17
2022-11-26T20:03:34.235Z,34.77
2022-11-26T20:06:06.114Z,31.65
2022-11-26T20:08:34.553Z,33.00
2022-11-26T20:11:03.700Z,29.70
2022-11-26T20:13:31.574Z,25.08
2022-11-26T20:15:58.892Z,30.80
2022-11-26T20:18:27.385Z,28.65
2022-11-26T20:21:02.618Z,24.25
2022-11-26T20:23:30.132Z,28.50
2022-11-26T20:25:57.487Z,21.80
2022-11-26T20:28:24.927Z,27.27
2022-11-26T20:30:52.695Z,24.85
2022-11-26T20:33:22.465Z,22.60
2022-11-26T20:35:50.283Z,23.75
2022-11-26T20:38:17.817Z,23.13
2022-11-26T20:40:45.737Z,22.33
2022-11-26T20:43:13.198Z,24.65
2022-11-26T20:45:40.730Z,29.65
2022-11-26T20:48:08.319Z,25.27
2022-11-26T20:50:35.690Z,23.38
2022-11-26T20:53:03.028Z,28.05
2022-11-26T20:55:30.496Z,25.25
2022-11-26T20:57:57.803Z,26.63
2022-11-26T21:00:27.729Z,26.10
2022-11-26T21:02:55.444Z,25.75
2022-11-26T21:05:23.241Z,24.73
2022-11-26T21:07:51.259Z,24.10
2022-11-26T21:10:19.737Z,31.58
2022-11-26T21:12:47.109Z,28.65
2022-11-26T21:15:14.421Z,28.25
2022-11-26T21:17:41.811Z,25.75
2022-11-26T21:20:09.867Z,27.02
2022-11-26T21:22:38.216Z,25.73
2022-11-26T21:25:05.936Z,22.58
2022-11-26T21:27:35.056Z,20.63
2022-11-26T21:30:02.766Z,25.95
2022-11-26T21:32:30.257Z,26.77
2022-11-26T21:34:57.617Z,21.17
2022-11-26T21:37:24.983Z,25.55
2022-11-26T21:39:52.225Z,22.13
2022-11-26T21:42:19.493Z,21.65
2022-11-26T21:44:46.870Z,18.48
2022-11-26T21:47:15.141Z,17.85
2022-11-26T21:49:42.507Z,17.20
2022-11-26T21:52:09.826Z,17.48
2022-11-26T21:54:37.310Z,17.80
2022-11-26T21:57:04.763Z,24.45
2022-11-26T21:59:32.115Z,17.25
2022-11-26T22:01:59.519Z,17.38
2022-11-26T22:04:26.933Z,19.55
2022-11-26T22:06:54.457Z,15.80
2022-11-26T22:09:22.145Z,18.60
2022-11-26T22:11:49.747Z,19.75
2022-11-26T22:14:17.247Z,18.35
2022-11-26T22:16:44.961Z,19.45
2022-11-26T22:19:12.414Z,15.18
2022-11-26T22:21:41.505Z,16.15
2022-11-26T22:24:16.234Z,19.77
2022-11-26T22:26:44.639Z,17.00
2022-11-26T22:29:16.428Z,17.00
2022-11-26T22:31:44.405Z,15.07
2022-11-26T22:34:14.195Z,17.63
2022-11-26T22:36:43.582Z,12.43
2022-11-26T22:39:16.203Z,16.90
2022-11-26T22:41:45.291Z,14.98
2022-11-26T22:44:13.430Z,15.50
2022-11-26T22:46:40.729Z,16.35
2022-11-26T22:49:12.021Z,15.55
2022-11-26T22:51:39.408Z,17.73
2022-11-26T22:54:09.765Z,15.05
2022-11-26T22:56:37.927Z,15.75
2022-11-26T22:59:06.989Z,14.02
2022-11-26T23:01:36.129Z,16.08
2022-11-26T23:04:07.172Z,15.75
2022-11-26T23:06:35.424Z,15.13
2022-11-26T23:09:05.558Z,14.75
2022-11-26T23:11:35.999Z,14.63
2022-11-26T23:14:06.961Z,15.05
2022-11-26T23:16:35.646Z,15.43
2022-11-26T23:19:03.717Z,14.77
2022-11-26T23:21:38.310Z,19.90
2022-11-26T23:24:06.671Z,19.70
2022-11-26T23:26:35.249Z,18.05
2022-11-26T23:29:03.802Z,17.40
2022-11-26T23:31:34.082Z,15.70
2022-11-26T23:34:01.731Z,16.77
2022-11-26T23:36:29.965Z,15.77
2022-11-26T23:39:00.394Z,19.50
2022-11-26T23:41:28.189Z,15.82
2022-11-26T23:43:55.698Z,14.90
2022-11-26T23:46:25.081Z,13.48
2022-11-26T23:48:53.747Z,12.63
2022-11-26T23:51:26.474Z,14.02
2022-11-26T23:53:54.625Z,14.38
2022-11-26T23:56:33.411Z,11.70
2022-11-26T23:59:02.796Z,14.20
